Time;durP1;ratioP1;P1;durP2;ratioP2;P2;SDS_P1;SDS_P2;PMS_P1;PMS_P2;Temp;Humidity;BMP_temperature;BMP_pressure;BME280_temperature;BME280_humidity;BME280_pressure;Samples;Min_cycle;Max_cycle;Signal;HPM_P1;HPM_P2
2022/06/15 00:01:23;;;;;;;4.43;4.00;;;14.90;52.20;;;14.05;56.38;98119.69;4987681;28;20481;-70
2022/06/15 00:03:51;;;;;;;5.80;4.40;;;15.00;52.20;;;14.13;56.23;98124.78;4984592;28;20504;-68
2022/06/15 00:06:22;;;;;;;4.07;3.77;;;14.90;52.20;;;14.01;56.23;98118.50;4985860;28;20460;-69
2022/06/15 00:08:53;;;;;;;4.70;3.80;;;14.90;52.30;;;13.96;56.67;98127.38;4982604;28;20461;-68
2022/06/15 00:11:24;;;;;;;3.93;3.60;;;14.90;52.50;;;13.95;56.84;98122.16;4980532;28;20607;-69
2022/06/15 00:13:53;;;;;;;4.83;3.70;;;14.80;52.50;;;13.95;56.75;98125.72;4993664;28;20464;-68
2022/06/15 00:16:21;;;;;;;6.13;4.40;;;14.90;52.60;;;13.93;56.72;98127.00;4985156;28;20439;-69
2022/06/15 00:18:49;;;;;;;5.07;4.67;;;14.80;52.60;;;13.84;57.24;98124.63;4988375;28;20547;-68
2022/06/15 00:21:20;;;;;;;5.50;4.77;;;14.80;52.80;;;13.80;57.39;98118.00;4984663;28;20987;-69
2022/06/15 00:23:48;;;;;;;5.37;4.87;;;14.70;53.00;;;13.71;57.49;98119.41;4985244;28;20465;-69
2022/06/15 00:26:16;;;;;;;5.10;4.67;;;14.70;53.00;;;13.57;58.54;98130.50;4983732;28;20472;-70
2022/06/15 00:28:43;;;;;;;4.53;4.13;;;14.60;53.40;;;13.68;58.08;98125.31;5032613;28;20557;-70
2022/06/15 00:31:11;;;;;;;6.67;4.90;;;14.60;53.60;;;13.57;58.56;98118.81;4997061;28;20451;-68
2022/06/15 00:33:38;;;;;;;5.13;4.63;;;14.50;53.90;;;13.49;58.99;98119.13;4981527;28;20472;-69
2022/06/15 00:36:09;;;;;;;4.60;4.20;;;14.40;54.10;;;13.37;59.09;98100.91;4979289;28;20463;-68
2022/06/15 00:38:40;;;;;;;4.67;4.27;;;14.40;54.40;;;13.42;58.84;98120.03;4982959;28;21062;-68
2022/06/15 00:41:12;;;;;;;5.10;4.40;;;14.40;54.30;;;13.39;59.21;98117.78;5012183;28;20471;-69
2022/06/15 00:43:42;;;;;;;4.73;4.30;;;14.30;54.50;;;13.36;59.25;98118.25;4983159;28;20483;-68
2022/06/15 00:46:23;;;;;;;5.73;4.40;;;14.30;54.70;;;13.38;59.17;98115.28;4997851;28;20478;-69
2022/06/15 00:48:55;;;;;;;5.53;5.00;;;14.30;54.70;;;13.34;58.87;98109.50;4979805;28;20467;-70
2022/06/15 00:51:24;;;;;;;4.90;4.50;;;14.30;54.60;;;13.30;59.05;98114.56;4981661;28;21282;-69
2022/06/15 00:53:54;;;;;;;5.03;4.63;;;14.30;54.60;;;13.26;59.24;98115.25;5015918;27;20474;-69
2022/06/15 00:56:23;;;;;;;4.70;4.40;;;14.20;54.50;;;13.20;59.38;98105.34;4981697;28;20547;-68
2022/06/15 00:58:54;;;;;;;4.60;4.20;;;14.20;54.60;;;13.16;59.64;98108.50;4985547;28;20490;-69
2022/06/15 01:01:21;;;;;;;5.80;4.57;;;14.20;54.80;;;12.96;59.92;98103.31;4984641;28;20492;-70
2022/06/15 01:03:51;;;;;;;5.83;4.30;;;14.10;54.90;;;12.97;60.22;98110.44;4983323;28;20455;-68
2022/06/15 01:06:39;;;;;;;4.60;4.20;;;14.00;55.20;;;13.00;60.29;98115.41;4979452;28;20492;-68
2022/06/15 01:09:15;;;;;;;6.83;5.30;;;14.00;55.40;;;13.09;59.79;98109.63;4982130;28;20494;-69
2022/06/15 01:12:03;;;;;;;4.80;4.10;;;14.00;55.30;;;13.04;59.95;98110.31;4995914;28;20454;-69
2022/06/15 01:15:03;;;;;;;4.50;4.10;;;14.00;55.40;;;13.03;59.86;98111.38;4988049;28;20525;-70
2022/06/15 01:17:57;;;;;;;4.90;4.13;;;14.00;55.40;;;12.85;60.37;98104.13;4979900;28;20839;-71
2022/06/15 01:20:47;;;;;;;4.23;3.93;;;14.00;55.70;;;12.89;60.65;98118.88;4995518;28;20464;-69
2022/06/15 01:23:55;;;;;;;5.53;5.00;;;13.90;55.90;;;12.77;60.85;98121.53;4976231;28;20552;-71
2022/06/15 01:27:16;;;;;;;5.30;4.80;;;13.80;56.20;;;12.81;61.66;98111.03;4988478;28;20608;-69
2022/06/15 01:30:12;;;;;;;4.67;4.30;;;13.80;56.80;;;12.79;61.74;98107.72;4995094;28;20472;-70
2022/06/15 01:32:47;;;;;;;6.07;4.63;;;13.80;57.10;;;12.84;61.79;98113.31;4984366;28;21027;-68
2022/06/15 01:35:22;;;;;;;5.23;4.73;;;13.80;57.20;;;12.65;61.49;98086.19;4976490;28;20455;-70
2022/06/15 01:37:57;;;;;;;6.43;5.27;;;13.80;57.30;;;12.67;62.18;98113.94;4978887;28;20549;-72
2022/06/15 01:40:34;;;;;;;4.90;4.50;;;13.70;57.30;;;12.72;61.91;98119.50;4979170;28;20476;-72
2022/06/15 01:43:09;;;;;;;5.87;4.73;;;13.70;57.60;;;12.61;62.25;98118.38;4979787;28;20508;-69
2022/06/15 01:45:40;;;;;;;5.80;4.87;;;13.60;57.80;;;12.64;62.55;98118.97;5069740;28;20455;-69
2022/06/15 01:48:12;;;;;;;5.00;4.60;;;13.60;58.10;;;12.52;62.31;98097.22;5058632;28;20454;-68
2022/06/15 01:50:44;;;;;;;4.90;4.50;;;13.60;58.10;;;12.60;62.57;98108.59;4984992;28;20475;-69
2022/06/15 01:53:19;;;;;;;5.77;5.27;;;13.60;58.40;;;12.58;62.84;98113.38;4983862;28;20464;-69
2022/06/15 01:55:51;;;;;;;5.57;4.83;;;13.60;58.60;;;12.52;63.07;98108.06;4985533;28;20457;-71
2022/06/15 01:58:22;;;;;;;5.27;4.77;;;13.50;58.70;;;12.44;62.97;98114.63;4984539;28;20452;-68
2022/06/15 02:00:57;;;;;;;5.60;5.17;;;13.50;59.00;;;12.35;63.42;98105.94;4986788;28;20455;-69
2022/06/15 02:03:32;;;;;;;6.97;5.13;;;13.40;59.20;;;12.30;63.39;98111.19;4985955;28;20493;-68
2022/06/15 02:06:06;;;;;;;6.77;5.33;;;13.40;59.50;;;12.37;63.57;98106.56;4982081;28;20990;-68
2022/06/15 02:08:44;;;;;;;4.90;4.43;;;13.40;59.70;;;12.18;63.90;98092.97;4983890;28;20462;-68
2022/06/15 02:11:16;;;;;;;4.97;4.43;;;13.30;59.80;;;12.07;63.99;98088.31;4977541;28;20466;-69
2022/06/15 02:13:49;;;;;;;5.90;5.30;;;13.20;60.20;;;12.23;63.58;98099.63;4984064;28;20520;-68
2022/06/15 02:16:26;;;;;;;5.13;4.70;;;13.20;60.30;;;12.25;64.28;98109.16;4984472;28;20519;-70
2022/06/15 02:18:54;;;;;;;6.73;4.93;;;13.30;60.80;;;12.23;63.92;98103.13;4986301;28;20504;-68
2022/06/15 02:21:24;;;;;;;5.30;4.90;;;13.20;60.90;;;12.21;64.21;98107.97;4981633;28;20483;-68
2022/06/15 02:23:56;;;;;;;5.43;4.93;;;13.20;60.90;;;12.13;64.54;98094.69;4982334;28;20522;-68
2022/06/15 02:26:26;;;;;;;5.17;4.77;;;13.20;61.40;;;12.14;64.32;98102.59;5002568;28;20439;-68
2022/06/15 02:28:59;;;;;;;5.87;4.97;;;13.10;61.60;;;12.15;64.71;98101.56;4993395;28;20462;-69
2022/06/15 02:31:28;;;;;;;5.93;5.43;;;13.10;61.90;;;12.12;64.28;98096.59;4999970;28;20460;-68
2022/06/15 02:33:57;;;;;;;5.80;5.20;;;13.10;62.00;;;12.14;64.40;98101.78;4982655;28;20819;-70
2022/06/15 02:36:25;;;;;;;5.37;4.90;;;13.10;62.20;;;12.03;64.95;98096.06;4983309;28;20463;-68
2022/06/15 02:38:52;;;;;;;5.10;4.60;;;13.10;62.30;;;12.04;65.10;98094.16;4983146;28;20455;-68
2022/06/15 02:41:21;;;;;;;6.30;5.30;;;13.10;62.70;;;11.90;65.62;98090.72;4985293;28;20570;-68
2022/06/15 02:43:53;;;;;;;7.60;5.30;;;13.00;63.00;;;11.96;65.33;98094.44;4981185;28;20470;-68
2022/06/15 02:46:23;;;;;;;6.53;4.77;;;13.00;63.30;;;11.91;65.22;98103.22;5005876;28;20462;-68
2022/06/15 02:48:52;;;;;;;5.33;4.83;;;12.90;63.50;;;11.81;66.02;98109.13;4984005;28;20442;-68
2022/06/15 02:51:29;;;;;;;5.80;5.20;;;12.80;64.00;;;11.74;66.01;98101.06;4974528;28;20533;-69
2022/06/15 02:54:01;;;;;;;5.17;4.67;;;12.80;64.40;;;11.84;65.56;98103.25;4987014;28;20451;-69
2022/06/15 02:56:30;;;;;;;5.50;5.00;;;12.80;64.50;;;11.87;65.78;98108.22;4982691;28;20541;-68
2022/06/15 02:58:57;;;;;;;5.20;4.80;;;12.90;64.40;;;11.80;65.67;98102.06;4986176;28;20469;-68
2022/06/15 03:01:26;;;;;;;5.23;4.83;;;12.90;64.60;;;11.82;66.06;98099.13;4983561;28;20479;-67
2022/06/15 03:03:54;;;;;;;5.70;4.73;;;12.90;64.80;;;11.81;66.33;98097.47;4979186;28;20465;-68
2022/06/15 03:06:27;;;;;;;4.73;4.40;;;12.90;64.90;;;11.83;65.92;98107.03;4983091;28;20462;-68
2022/06/15 03:08:56;;;;;;;5.97;5.37;;;12.90;65.00;;;11.83;65.77;98101.63;4984512;28;21035;-69
2022/06/15 03:11:24;;;;;;;5.87;5.37;;;12.90;65.20;;;11.82;66.29;98108.06;4983715;28;20460;-68
2022/06/15 03:13:52;;;;;;;6.20;5.70;;;12.80;65.10;;;11.86;65.91;98112.00;4983915;28;20567;-68
2022/06/15 03:16:19;;;;;;;7.17;6.67;;;12.90;65.30;;;11.80;66.16;98096.66;4984835;28;20483;-70
2022/06/15 03:18:47;;;;;;;5.70;4.93;;;12.90;65.80;;;11.87;66.15;98108.22;4985545;28;20473;-72
2022/06/15 03:21:16;;;;;;;5.30;4.90;;;12.90;65.40;;;11.88;66.34;98107.19;4979824;28;20510;-72
2022/06/15 03:23:44;;;;;;;6.83;6.13;;;12.90;65.40;;;11.88;66.42;98106.38;4988057;28;21056;-69
2022/06/15 03:26:11;;;;;;;8.53;5.23;;;12.90;65.60;;;11.87;65.93;98108.22;4987378;28;20449;-69
2022/06/15 03:28:38;;;;;;;5.67;5.17;;;12.90;65.50;;;11.94;66.26;98124.41;4986447;28;20456;-69
2022/06/15 03:31:06;;;;;;;5.93;5.43;;;13.00;65.60;;;11.90;66.62;98117.78;4987377;28;20454;-69
2022/06/15 03:33:33;;;;;;;6.57;6.07;;;13.00;65.60;;;11.86;66.43;98113.88;4985238;28;20609;-69
2022/06/15 03:36:01;;;;;;;6.50;5.63;;;12.90;65.90;;;11.59;66.69;98068.91;4985660;28;20464;-69
2022/06/15 03:38:30;;;;;;;6.53;5.93;;;12.90;65.90;;;11.90;66.57;98107.81;4994704;28;20527;-71
2022/06/15 03:40:57;;;;;;;5.80;5.40;;;12.90;65.90;;;11.94;66.65;98118.19;5007365;28;20539;-69
2022/06/15 03:43:25;;;;;;;5.93;5.40;;;13.00;66.10;;;12.00;66.71;98111.88;5007402;28;20535;-70
2022/06/15 03:45:52;;;;;;;5.77;5.13;;;13.00;66.20;;;11.58;66.16;98056.44;5007425;28;20462;-70
2022/06/15 03:48:19;;;;;;;6.90;6.30;;;13.00;66.00;;;11.95;66.50;98122.56;4999063;28;20468;-69
2022/06/15 03:50:47;;;;;;;5.73;5.13;;;13.00;66.10;;;12.10;66.25;98123.06;4988292;28;20449;-70
2022/06/15 03:53:14;;;;;;;7.70;5.47;;;13.10;66.40;;;12.08;66.04;98118.91;4989911;28;20473;-70
2022/06/15 03:55:43;;;;;;;6.07;5.47;;;13.20;66.50;;;12.12;66.58;98120.13;5007193;28;20453;-68
2022/06/15 03:58:14;;;;;;;7.60;6.83;;;13.20;66.10;;;12.23;65.76;98116.69;4992450;28;20460;-67
2022/06/15 04:00:41;;;;;;;6.13;5.53;;;13.20;66.20;;;12.24;65.61;98107.50;4969395;28;20509;-68
2022/06/15 04:03:09;;;;;;;6.17;5.57;;;13.30;65.90;;;12.32;65.40;98111.81;4967346;28;21103;-69
2022/06/15 04:05:41;;;;;;;6.07;5.50;;;13.30;65.80;;;12.92;63.65;98118.41;4985875;28;20527;-70
2022/06/15 04:11:03;;;;;;;6.83;6.20;;;14.80;62.20;;;15.09;57.06;98117.31;4989137;28;20455;-69
2022/06/15 04:13:31;;;;;;;5.90;5.40;;;16.20;58.90;;;15.71;55.22;98112.16;5001695;28;20533;-71
2022/06/15 04:15:58;;;;;;;6.30;5.70;;;17.00;56.70;;;15.70;54.57;98105.06;4985628;28;20526;-68
2022/06/15 04:18:25;;;;;;;7.80;5.07;;;17.30;55.40;;;15.96;54.20;98113.66;4984026;28;20464;-69
2022/06/15 04:20:52;;;;;;;5.90;5.40;;;17.70;54.70;;;16.43;52.20;98107.00;4981884;28;20459;-68
2022/06/15 04:23:23;;;;;;;6.43;5.90;;;18.00;54.00;;;16.38;53.08;98104.22;4983254;28;20494;-69
2022/06/15 04:25:54;;;;;;;6.20;5.63;;;18.10;53.60;;;16.83;51.42;98115.97;5002290;28;20978;-69
2022/06/15 04:28:25;;;;;;;6.30;5.70;;;18.50;52.90;;;17.52;49.85;98117.28;4986698;28;20484;-69
2022/06/15 04:30:52;;;;;;;5.53;5.13;;;19.10;52.10;;;17.53;49.61;98113.47;5006326;28;20467;-69
2022/06/15 04:33:20;;;;;;;5.93;5.47;;;19.30;51.50;;;17.22;50.09;98117.78;5012657;28;20951;-70
2022/06/15 04:35:47;;;;;;;5.90;5.30;;;19.10;51.30;;;17.41;49.60;98119.09;4987161;28;20468;-69
2022/06/15 04:38:14;;;;;;;7.33;5.90;;;19.20;51.20;;;17.26;49.81;98117.03;4982469;28;20464;-74
2022/06/15 04:40:42;;;;;;;6.10;5.60;;;19.10;51.10;;;17.05;50.51;98106.94;4982068;28;20501;-76
2022/06/15 04:43:10;;;;;;;5.60;5.10;;;18.90;51.30;;;17.25;49.93;98117.28;4985234;28;20468;-74
2022/06/15 04:45:39;;;;;;;6.60;5.30;;;19.00;51.30;;;17.74;49.11;98130.03;4999724;28;20451;-73
2022/06/15 04:48:09;;;;;;;5.83;5.43;;;19.30;51.00;;;18.35;47.90;98123.44;4991016;28;20452;-71
2022/06/15 04:50:37;;;;;;;6.77;5.17;;;19.70;50.90;;;20.07;46.09;98117.38;4982406;28;21028;-74
2022/06/15 04:53:06;;;;;;;6.00;4.80;;;20.70;51.40;;;20.62;42.54;98121.38;5003564;28;21084;-74
2022/06/15 04:55:34;;;;;;;5.97;5.40;;;21.50;49.20;;;19.04;45.83;98134.47;4992731;28;20468;-76
2022/06/15 04:58:02;;;;;;;5.70;5.20;;;21.10;48.70;;;19.49;44.96;98131.31;4996827;28;20554;-78
2022/06/15 05:00:34;;;;;;;5.53;5.00;;;21.10;48.80;;;19.85;44.31;98130.53;4983896;28;20461;-74
2022/06/15 05:03:04;;;;;;;5.57;4.93;;;21.60;48.60;;;20.33;43.25;98120.09;4979131;28;20517;-79
2022/06/15 05:05:32;;;;;;;6.43;3.63;;;22.00;48.10;;;21.70;42.20;98109.06;4982601;28;20793;-74
2022/06/15 05:07:59;;;;;;;7.03;5.00;;;22.60;49.10;;;22.03;39.42;98109.34;4991450;28;20473;-76
2022/06/15 05:10:27;;;;;;;5.60;5.10;;;23.40;47.20;;;21.70;39.93;98106.34;4977556;28;20524;-73
2022/06/15 05:12:55;;;;;;;5.50;5.00;;;23.50;46.80;;;21.15;41.26;98129.16;4992494;28;20474;-73
2022/06/15 05:15:23;;;;;;;6.10;4.90;;;23.20;46.70;;;20.59;42.43;98111.81;4995303;28;20474;-74
2022/06/15 05:17:51;;;;;;;5.50;5.00;;;22.60;47.00;;;20.15;43.87;98115.19;4993941;28;20458;-78
2022/06/15 05:20:20;;;;;;;6.10;4.63;;;22.20;47.10;;;20.00;43.86;98132.47;4977947;28;20585;-76
2022/06/15 05:22:51;;;;;;;7.20;5.43;;;21.90;47.30;;;20.67;42.84;98129.63;4979098;28;20595;-76
2022/06/15 05:25:20;;;;;;;6.60;5.43;;;22.30;47.70;;;21.57;41.53;98123.44;4974976;28;20498;-78
2022/06/15 05:27:47;;;;;;;10.17;5.10;;;22.90;47.90;;;21.20;42.20;98134.66;4978116;28;20987;-75
2022/06/15 05:30:15;;;;;;;4.77;4.40;;;23.10;47.80;;;21.66;40.96;98130.00;5017604;28;20471;-71
2022/06/15 05:32:43;;;;;;;5.83;4.90;;;23.50;47.00;;;21.22;42.24;98135.19;4976534;28;20463;-71
2022/06/15 05:35:11;;;;;;;5.63;4.87;;;23.40;46.80;;;20.69;43.34;98140.31;4977767;28;20495;-69
2022/06/15 05:37:40;;;;;;;8.00;5.17;;;22.70;47.20;;;20.79;42.97;98143.03;4988650;28;20469;-69
2022/06/15 05:40:09;;;;;;;5.07;4.60;;;22.70;47.30;;;20.97;42.50;98144.38;4977116;28;20775;-68
2022/06/15 05:42:36;;;;;;;5.20;4.73;;;22.80;47.20;;;20.31;44.14;98143.41;4981278;28;20485;-68
2022/06/15 05:45:04;;;;;;;5.90;5.10;;;22.20;47.50;;;20.49;43.75;98136.53;4994077;28;20518;-68
2022/06/15 05:47:31;;;;;;;6.53;4.70;;;22.10;47.80;;;20.38;44.24;98138.47;4977518;28;20511;-71
2022/06/15 05:49:59;;;;;;;9.53;4.83;;;21.90;47.90;;;20.56;43.98;98142.56;4978229;28;20480;-69
2022/06/15 05:52:26;;;;;;;7.60;5.20;;;21.80;48.20;;;20.95;43.19;98130.91;4979894;28;20529;-70
2022/06/15 05:54:56;;;;;;;8.17;5.60;;;22.20;48.10;;;20.88;43.61;98138.63;4977663;28;20890;-71
2022/06/15 05:57:26;;;;;;;5.63;5.00;;;22.40;48.10;;;20.85;43.72;98130.13;4977839;28;20461;-71
2022/06/15 05:59:56;;;;;;;5.90;5.40;;;22.40;48.10;;;21.06;43.61;98136.38;4985186;28;20803;-71
2022/06/15 06:02:26;;;;;;;5.97;5.40;;;22.60;48.30;;;22.20;41.09;98135.59;4974619;28;21192;-70
2022/06/15 06:04:55;;;;;;;7.00;5.17;;;23.30;47.90;;;22.77;40.28;98127.63;4977478;28;20615;-70
2022/06/15 06:07:23;;;;;;;5.23;4.67;;;24.00;47.40;;;23.66;38.71;98132.81;4987744;28;20457;-71
2022/06/15 06:09:51;;;;;;;6.03;5.07;;;24.80;46.90;;;22.85;39.71;98128.94;4999392;28;20513;-70
2022/06/15 06:12:20;;;;;;;5.43;4.80;;;24.80;46.50;;;22.30;40.83;98134.72;4985387;28;20473;-69
2022/06/15 06:14:50;;;;;;;6.57;5.57;;;24.10;46.80;;;21.84;42.30;98127.69;4973154;28;20952;-70
2022/06/15 06:17:17;;;;;;;7.53;5.03;;;23.80;47.20;;;22.46;41.11;98132.63;4976556;28;20453;-67
2022/06/15 06:19:45;;;;;;;5.77;5.03;;;23.90;47.20;;;23.24;39.37;98129.81;4977137;28;20495;-70
2022/06/15 06:22:14;;;;;;;4.60;4.30;;;24.30;47.00;;;22.72;40.42;98135.94;4977129;28;20529;-81
2022/06/15 06:24:42;;;;;;;5.93;4.77;;;24.30;46.80;;;23.14;39.58;98118.91;4975492;28;20506;-75
2022/06/15 06:27:13;;;;;;;7.80;4.70;;;24.90;46.70;;;22.38;41.35;98133.28;5009065;28;20458;-71
2022/06/15 06:29:42;;;;;;;5.47;4.90;;;24.40;46.90;;;22.75;40.65;98126.28;4980309;28;20460;-73
2022/06/15 06:32:13;;;;;;;9.33;5.10;;;24.20;47.10;;;21.66;43.13;98135.50;4981484;28;20464;-73
2022/06/15 06:34:40;;;;;;;8.03;4.97;;;23.60;47.50;;;20.25;46.41;98123.41;4984865;28;20447;-71
2022/06/15 06:37:07;;;;;;;5.63;5.13;;;22.20;48.40;;;19.52;48.26;98133.50;4975205;28;20504;-69
2022/06/15 06:39:36;;;;;;;10.00;5.23;;;21.00;49.70;;;19.01;49.92;98131.44;4979637;28;20534;-76
2022/06/15 06:42:05;;;;;;;5.73;4.87;;;20.30;50.60;;;18.80;50.57;98123.13;4980247;28;20478;-77
2022/06/15 06:44:32;;;;;;;5.67;4.90;;;19.90;51.40;;;18.71;51.16;98130.19;4982404;28;20615;-71
2022/06/15 06:47:02;;;;;;;6.33;5.17;;;19.70;51.90;;;18.94;50.98;98135.22;4972784;28;20892;-72
2022/06/15 06:49:29;;;;;;;5.27;4.87;;;19.70;52.30;;;19.11;50.72;98131.47;5001747;28;20487;-73
2022/06/15 06:51:57;;;;;;;5.23;4.73;;;19.90;52.50;;;19.13;50.91;98132.03;5031418;28;20457;-74
2022/06/15 06:54:24;;;;;;;5.63;4.50;;;20.00;52.70;;;19.11;50.88;98137.78;4976013;28;20646;-74
2022/06/15 06:56:53;;;;;;;5.93;5.30;;;20.00;52.50;;;19.01;50.60;98134.16;4976966;28;20955;-74
2022/06/15 06:59:20;;;;;;;5.70;5.10;;;20.00;52.30;;;19.01;50.98;98143.22;4981322;28;20752;-73
2022/06/15 07:01:49;;;;;;;8.00;4.63;;;19.80;52.50;;;19.30;51.16;98141.94;4976866;28;20459;-73
2022/06/15 07:04:19;;;;;;;7.03;5.83;;;20.00;53.00;;;19.59;50.20;98112.16;4978577;28;21037;-73
2022/06/15 07:06:47;;;;;;;7.60;5.50;;;20.40;53.10;;;19.99;49.37;98128.06;4982601;28;21136;-73
2022/06/15 07:09:15;;;;;;;7.50;4.73;;;20.60;52.80;;;20.08;48.56;98129.97;4980040;28;20457;-75
2022/06/15 07:11:43;;;;;;;6.30;4.70;;;20.80;51.90;;;20.26;48.15;98122.31;5020191;28;20553;-73
2022/06/15 07:14:10;;;;;;;8.50;4.70;;;21.00;51.90;;;20.10;45.90;98111.34;4977791;28;20449;-74
2022/06/15 07:16:38;;;;;;;4.60;4.20;;;21.00;50.20;;;20.08;46.57;98119.00;4974258;28;21432;-72
2022/06/15 07:19:07;;;;;;;6.70;4.60;;;20.90;50.50;;;20.43;46.61;98115.69;4973838;28;20977;-72
2022/06/15 07:21:35;;;;;;;4.67;4.23;;;21.10;50.90;;;20.77;46.40;98115.03;4970597;28;21423;-71
2022/06/15 07:24:04;;;;;;;5.80;4.33;;;21.40;51.10;;;20.82;45.62;98112.28;4973781;28;20473;-73
2022/06/15 07:26:36;;;;;;;4.90;4.50;;;21.50;50.50;;;20.72;45.23;98120.56;4994462;28;20468;-72
2022/06/15 07:29:04;;;;;;;6.30;4.10;;;21.50;49.90;;;20.89;44.31;98115.56;4981708;28;20466;-71
2022/06/15 07:31:36;;;;;;;5.20;4.43;;;21.60;49.80;;;21.18;43.02;98112.13;4977469;28;20523;-72
2022/06/15 07:34:04;;;;;;;5.27;4.77;;;21.80;49.00;;;21.21;42.11;98103.31;4987724;28;20440;-83
2022/06/15 07:36:32;;;;;;;4.50;4.10;;;22.00;48.30;;;21.44;42.32;98113.91;4979294;28;20467;-74
2022/06/15 07:39:00;;;;;;;5.30;3.63;;;22.10;48.40;;;21.13;42.65;98081.94;4999348;28;20460;-74
2022/06/15 07:41:29;;;;;;;5.60;4.50;;;22.10;48.40;;;21.34;42.32;98103.81;4977715;28;20859;-74
2022/06/15 07:43:57;;;;;;;5.83;4.60;;;22.10;48.30;;;21.38;42.52;98110.38;4980494;28;21159;-76
2022/06/15 07:46:25;;;;;;;4.77;4.37;;;22.20;48.40;;;21.65;42.43;98100.84;4976073;28;20647;-75
2022/06/15 07:51:43;;;;;;;4.83;4.30;;;22.40;48.30;;;21.35;42.57;98094.47;4973962;28;20634;-73
2022/06/15 07:54:16;;;;;;;4.50;4.10;;;22.20;48.30;;;21.52;42.38;98108.63;4976223;28;20568;-75
2022/06/15 07:56:44;;;;;;;5.70;4.10;;;22.30;48.40;;;21.86;42.15;98104.28;4975451;28;20952;-75
2022/06/15 07:59:14;;;;;;;5.27;3.73;;;22.50;48.60;;;21.86;41.65;98092.47;4990137;28;20485;-75
2022/06/15 08:01:42;;;;;;;5.13;4.60;;;22.60;48.00;;;21.82;41.59;98100.44;4997420;28;20507;-75
2022/06/15 08:04:09;;;;;;;5.00;4.50;;;22.60;48.10;;;21.92;41.62;98092.13;4989497;28;20496;-76
2022/06/15 08:06:39;;;;;;;4.57;4.13;;;22.60;48.30;;;22.18;41.60;98082.81;4976668;28;20573;-75
2022/06/15 08:09:09;;;;;;;5.37;4.80;;;22.80;48.40;;;22.36;40.82;98076.56;4991067;28;20492;-75
2022/06/15 08:11:38;;;;;;;6.23;4.23;;;22.90;48.00;;;22.36;40.58;98073.81;4978912;28;20453;-75
2022/06/15 08:14:06;;;;;;;4.00;3.60;;;23.10;47.80;;;22.46;40.38;98089.41;4977271;28;20550;-74
2022/06/15 08:16:35;;;;;;;4.27;3.87;;;23.20;47.70;;;22.60;40.60;98089.56;4994898;28;20452;-74
2022/06/15 08:19:04;;;;;;;6.83;4.60;;;23.30;47.80;;;22.60;40.48;98080.50;4981391;28;20459;-74
2022/06/15 08:21:35;;;;;;;4.37;4.07;;;23.30;47.60;;;22.72;40.63;98085.56;4993115;28;20529;-74
2022/06/15 08:24:03;;;;;;;5.43;3.87;;;23.40;48.00;;;22.42;39.57;98049.81;4996136;28;20489;-74
2022/06/15 08:26:35;;;;;;;4.57;4.10;;;23.40;47.40;;;22.63;39.93;98083.44;4978676;28;20495;-74
2022/06/15 08:29:12;;;;;;;6.45;3.92;;;23.30;47.30;;;22.89;39.29;98074.06;4979720;28;20555;-69
2022/06/15 08:31:39;;;;;;;3.83;3.53;;;23.50;47.40;;;22.89;39.21;98087.81;4989553;28;20314;-70
2022/06/15 08:34:07;;;;;;;7.00;4.10;;;23.60;47.10;;;22.68;39.22;98076.28;4981220;28;20480;-69
2022/06/15 08:36:35;;;;;;;3.93;3.63;;;23.40;46.80;;;22.66;37.82;98075.72;4971963;28;20937;-69
2022/06/15 08:39:03;;;;;;;3.87;3.47;;;23.40;45.70;;;22.97;37.99;98087.19;4981576;28;21038;-69
2022/06/15 08:41:42;;;;;;;3.53;3.23;;;23.50;46.20;;;22.99;36.19;98076.69;4973165;28;20542;-70
2022/06/15 08:44:24;;;;;;;5.60;4.00;;;23.70;44.80;;;23.25;36.39;98070.00;4979823;28;20471;-70
2022/06/15 08:47:00;;;;;;;4.97;3.70;;;23.80;45.10;;;23.42;36.02;98070.31;4979202;28;20793;-70
2022/06/15 08:49:42;;;;;;;4.70;3.30;;;24.00;45.00;;;23.56;35.83;98066.78;4987836;28;20450;-70
2022/06/15 08:52:17;;;;;;;5.77;3.90;;;24.10;44.90;;;23.59;36.41;98066.22;4979506;28;20460;-71
2022/06/15 08:54:56;;;;;;;4.50;3.40;;;24.10;45.30;;;23.55;35.61;98067.91;4980547;28;20996;-70
2022/06/15 08:57:32;;;;;;;4.43;3.30;;;24.30;44.60;;;23.39;35.66;98073.66;4976776;28;20456;-71
2022/06/15 09:00:09;;;;;;;5.80;3.90;;;24.10;44.40;;;23.71;35.83;98065.75;4976587;28;20457;-71
2022/06/15 09:02:44;;;;;;;6.73;4.47;;;24.30;45.00;;;23.83;36.20;98063.34;4979687;28;20198;-70
2022/06/15 09:05:23;;;;;;;4.33;3.43;;;24.40;45.50;;;23.60;36.46;98059.59;4978624;28;20483;-72
2022/06/15 09:08:08;;;;;;;4.10;3.77;;;24.30;45.20;;;23.81;36.36;98059.22;4990615;28;20830;-71
2022/06/15 09:10:51;;;;;;;8.97;3.80;;;24.40;45.50;;;24.01;35.63;98058.88;4974874;28;20468;-70
2022/06/15 09:13:37;;;;;;;3.33;2.97;;;24.50;45.30;;;24.18;33.52;98058.31;4977678;28;20471;-71
2022/06/15 09:16:16;;;;;;;4.90;3.13;;;24.80;43.80;;;24.12;33.45;98059.56;4981986;28;20466;-71
2022/06/15 09:18:48;;;;;;;3.80;3.50;;;24.70;43.30;;;24.01;33.40;98058.88;4983617;28;20478;-71
2022/06/15 09:21:21;;;;;;;10.60;4.30;;;24.80;43.30;;;24.30;33.59;98057.00;4999756;28;20569;-72
2022/06/15 09:23:53;;;;;;;4.37;3.40;;;24.80;43.60;;;24.10;33.14;98067.28;4983721;28;20574;-71
2022/06/15 09:26:28;;;;;;;4.17;3.27;;;24.80;43.10;;;23.89;33.84;98051.06;4978336;28;20524;-70
2022/06/15 09:29:01;;;;;;;4.00;3.30;;;24.60;43.40;;;24.19;32.96;98065.47;4983465;28;20459;-70
2022/06/15 09:31:37;;;;;;;3.70;3.23;;;24.70;43.10;;;24.47;32.71;98059.97;5001397;28;20467;-71
2022/06/15 09:34:07;;;;;;;5.43;3.20;;;24.90;43.00;;;24.60;32.30;98061.09;4983657;28;20458;-71
2022/06/15 09:36:40;;;;;;;5.40;3.00;;;25.20;43.00;;;24.59;32.46;98067.75;4971518;28;20471;-71
2022/06/15 09:39:07;;;;;;;3.17;2.87;;;25.20;42.80;;;24.82;32.20;98062.34;4989357;28;20811;-71
2022/06/15 09:41:45;;;;;;;5.60;3.47;;;25.30;42.80;;;24.99;32.08;98060.91;4980743;28;20576;-71
2022/06/15 09:44:27;;;;;;;2.70;2.50;;;25.60;42.70;;;25.18;31.15;98066.28;4973042;28;20666;-72
2022/06/15 09:47:08;;;;;;;4.20;3.50;;;25.70;42.20;;;25.32;30.96;98057.94;4988450;28;20657;-73
2022/06/15 09:49:48;;;;;;;4.27;2.73;;;25.80;42.10;;;25.12;30.34;98061.97;4977002;28;20463;-74
2022/06/15 09:52:26;;;;;;;3.00;2.80;;;25.70;41.50;;;25.12;31.16;98056.47;4975296;28;20482;-74
2022/06/15 09:55:06;;;;;;;9.40;3.30;;;25.60;42.00;;;25.21;30.40;98056.53;4988243;28;20464;-74
2022/06/15 09:57:34;;;;;;;2.97;2.53;;;25.70;41.70;;;24.97;30.86;98038.28;4981226;28;21129;-74
2022/06/15 10:00:03;;;;;;;4.50;3.10;;;25.70;41.50;;;25.16;30.67;98030.66;4980376;28;20800;-74
2022/06/15 10:02:36;;;;;;;4.30;2.97;;;25.80;41.80;;;25.37;30.62;98040.41;4983499;28;20452;-75
2022/06/15 10:05:09;;;;;;;5.90;3.20;;;25.90;41.60;;;25.10;30.07;98040.22;4980299;28;20833;-73
2022/06/15 10:07:40;;;;;;;3.70;2.87;;;25.70;41.00;;;25.32;30.16;98039.41;4977077;28;20452;-73
2022/06/15 10:10:18;;;;;;;3.57;2.83;;;25.80;41.10;;;25.22;30.35;98045.19;4974341;28;20475;-74
2022/06/15 10:12:59;;;;;;;5.27;3.50;;;25.80;41.10;;;25.39;29.95;98040.91;4978860;28;20468;-73
2022/06/15 10:15:35;;;;;;;4.53;2.30;;;25.90;41.10;;;25.23;30.25;98037.69;4974051;28;22388;-73
2022/06/15 10:18:20;;;;;;;3.90;3.60;;;25.90;40.80;;;25.09;30.25;98038.53;4981322;28;20461;-73
2022/06/15 10:21:11;;;;;;;4.07;2.90;;;25.80;41.20;;;25.21;30.59;98031.66;4983661;28;20575;-75
2022/06/15 10:23:51;;;;;;;3.67;3.43;;;25.80;41.50;;;25.44;30.52;98022.25;4974076;28;20468;-74
2022/06/15 10:26:41;;;;;;;3.47;3.17;;;25.90;41.50;;;25.83;30.16;98024.66;4971695;28;20464;-74
2022/06/15 10:29:31;;;;;;;3.90;3.30;;;26.30;41.40;;;25.54;30.37;98010.16;4968687;28;20873;-74
2022/06/15 10:32:06;;;;;;;7.03;2.70;;;26.20;41.10;;;25.55;29.92;98022.03;5005614;28;21023;-74
2022/06/15 10:34:51;;;;;;;8.53;2.87;;;26.20;41.10;;;25.34;30.39;98018.94;4971894;28;21190;-73
2022/06/15 10:38:18;;;;;;;3.83;3.27;;;26.10;41.30;;;25.70;30.11;98010.56;5103644;27;20654;-71
2022/06/15 10:41:45;;;;;;;3.17;2.87;;;26.20;41.50;;;25.60;30.07;98008.88;5090805;27;21004;-70
2022/06/15 10:43:50;;;;;;;4.10;3.20;;;26.20;41.00;;;25.63;29.90;98004.69;5087749;28;20462;-75
2022/06/15 10:46:21;;;;;;;3.37;2.80;;;26.30;41.10;;;25.70;29.72;98010.56;5092372;28;20454;-70